createdAt,value
2019-01-21T00:01:23.691Z,99938.64
2019-01-21T00:03:51.526Z,99937.03
2019-01-21T00:06:19.328Z,99937.00
2019-01-21T00:08:47.109Z,99937.23
2019-01-21T00:11:14.969Z,99933.34
2019-01-21T00:13:42.731Z,99942.63
2019-01-21T00:16:10.511Z,99945.23
2019-01-21T00:19:34.943Z,99943.20
2019-01-21T00:22:02.811Z,99946.09
2019-01-21T00:24:30.673Z,99951.28
2019-01-21T00:26:58.462Z,99943.16
2019-01-21T00:29:26.255Z,99945.59
2019-01-21T00:31:54.042Z,99950.38
2019-01-21T00:34:21.776Z,99939.87
2019-01-21T00:36:49.588Z,99946.47
2019-01-21T00:39:17.399Z,99938.33
2019-01-21T00:41:45.202Z,99947.91
2019-01-21T00:44:13.009Z,99947.84
2019-01-21T00:46:40.850Z,99947.99
2019-01-21T00:49:08.653Z,99953.02
2019-01-21T00:51:36.454Z,99944.74
2019-01-21T00:54:04.228Z,99950.08
2019-01-21T00:56:31.997Z,99948.27
2019-01-21T00:58:59.841Z,99955.28
2019-01-21T01:01:28.189Z,99954.73
2019-01-21T01:03:56.083Z,99955.61
2019-01-21T01:06:23.867Z,99955.94
2019-01-21T01:08:51.723Z,99959.59
2019-01-21T01:11:19.499Z,99958.84
2019-01-21T01:13:47.263Z,99963.19
2019-01-21T01:16:15.048Z,99961.19
2019-01-21T01:18:42.943Z,99959.85
2019-01-21T01:21:10.750Z,99960.47
2019-01-21T01:23:38.603Z,99957.70
2019-01-21T01:26:06.414Z,99958.55
2019-01-21T01:28:34.318Z,99959.62
2019-01-21T01:31:02.081Z,99958.72
2019-01-21T01:33:29.863Z,99954.24
2019-01-21T01:35:57.771Z,99958.69
2019-01-21T01:38:25.635Z,99960.16
2019-01-21T01:40:53.472Z,99958.63
2019-01-21T01:43:21.211Z,99959.97
2019-01-21T01:45:49.112Z,99964.81
2019-01-21T01:48:16.962Z,99961.16
2019-01-21T01:50:44.776Z,99965.83
2019-01-21T01:53:14.496Z,99965.52
2019-01-21T01:55:42.410Z,99968.07
2019-01-21T01:58:10.200Z,99973.14
2019-01-21T02:00:38.019Z,99967.61
2019-01-21T02:03:07.230Z,99971.66
2019-01-21T02:05:35.036Z,99966.33
2019-01-21T02:08:03.061Z,99963.89
2019-01-21T02:10:31.260Z,99969.02
2019-01-21T02:12:59.034Z,99965.77
2019-01-21T02:15:26.832Z,99962.33
2019-01-21T02:17:54.649Z,99960.65
2019-01-21T02:20:22.516Z,99962.40
2019-01-21T02:22:54.068Z,99958.98
2019-01-21T02:25:51.269Z,99960.01
2019-01-21T02:28:37.264Z,99955.11
2019-01-21T02:31:54.967Z,99955.80
2019-01-21T02:35:14.019Z,99952.39
2019-01-21T02:38:32.420Z,99955.39
2019-01-21T02:41:49.200Z,99949.64
2019-01-21T02:44:56.629Z,99944.14
2019-01-21T02:48:29.145Z,99951.97
2019-01-21T02:51:24.203Z,99952.03
2019-01-21T02:54:40.345Z,99954.96
2019-01-21T02:57:41.957Z,99955.34
2019-01-21T03:01:17.395Z,99951.28
2019-01-21T03:04:19.526Z,99946.96
2019-01-21T03:07:19.724Z,99944.88
2019-01-21T03:10:35.750Z,99949.59
2019-01-21T03:14:01.810Z,99944.06
2019-01-21T03:17:25.215Z,99945.43
2019-01-21T03:20:22.070Z,99942.20
2019-01-21T03:23:45.934Z,99941.85
2019-01-21T03:27:39.285Z,99935.62
2019-01-21T03:31:16.311Z,99928.27
2019-01-21T03:34:29.134Z,99936.53
2019-01-21T03:38:02.913Z,99938.83
2019-01-21T03:41:13.069Z,99939.92
2019-01-21T03:44:43.004Z,99935.22
2019-01-21T03:48:03.127Z,99932.96
2019-01-21T03:51:38.530Z,99936.03
2019-01-21T03:54:23.510Z,99930.11
2019-01-21T03:57:31.618Z,99927.50
2019-01-21T04:00:34.755Z,99936.70
2019-01-21T04:04:04.043Z,99935.56
2019-01-21T04:07:21.373Z,99928.78
2019-01-21T04:10:55.898Z,99926.16
2019-01-21T04:14:10.236Z,99933.48
2019-01-21T04:17:45.328Z,99934.73
2019-01-21T04:20:55.160Z,99931.91
2019-01-21T04:24:04.066Z,99928.80
2019-01-21T04:27:11.461Z,99934.59
2019-01-21T04:30:27.577Z,99939.64
2019-01-21T04:33:59.782Z,99933.84
2019-01-21T04:37:06.715Z,99932.98
2019-01-21T04:40:09.625Z,99939.48
2019-01-21T04:43:34.730Z,99937.75
2019-01-21T04:46:57.195Z,99942.38
2019-01-21T04:50:31.160Z,99935.67
2019-01-21T04:53:50.275Z,99952.31
2019-01-21T04:57:30.098Z,99953.65
2019-01-21T05:01:00.833Z,99953.85
2019-01-21T05:04:14.360Z,99949.49
2019-01-21T05:08:07.363Z,99945.66
2019-01-21T05:11:25.610Z,99940.34
2019-01-21T05:14:45.491Z,99947.77
2019-01-21T05:18:05.361Z,99956.46
2019-01-21T05:21:34.995Z,99956.93
2019-01-21T05:24:40.630Z,99960.86
2019-01-21T05:28:06.709Z,99959.91
2019-01-21T05:31:07.245Z,99956.01
2019-01-21T05:34:28.190Z,99957.46
2019-01-21T05:37:53.566Z,99963.33
2019-01-21T05:41:07.404Z,99969.68
2019-01-21T05:44:43.839Z,99963.98
2019-01-21T05:47:52.666Z,99964.64
2019-01-21T05:51:24.000Z,99952.28
2019-01-21T05:54:21.891Z,99963.79
2019-01-21T05:57:50.390Z,99963.70
2019-01-21T06:01:05.411Z,99962.50
2019-01-21T06:04:11.166Z,99965.28
2019-01-21T06:07:33.768Z,99971.22
2019-01-21T06:10:45.132Z,99971.72
2019-01-21T06:14:03.953Z,99976.36
2019-01-21T06:17:38.366Z,99974.31
2019-01-21T06:21:13.092Z,99975.45
2019-01-21T06:24:35.910Z,99982.37
2019-01-21T06:28:41.272Z,99980.84
2019-01-21T06:32:06.704Z,99987.21
2019-01-21T06:35:31.621Z,99989.23
2019-01-21T06:39:11.622Z,99988.24
2019-01-21T06:42:24.687Z,99996.42
2019-01-21T06:45:58.663Z,100000.13
2019-01-21T06:49:38.819Z,100003.31
2019-01-21T06:53:05.660Z,100011.01
2019-01-21T06:56:19.529Z,100015.78
2019-01-21T06:59:43.352Z,100015.25
2019-01-21T07:03:16.108Z,100011.44
2019-01-21T07:06:53.516Z,100011.80
2019-01-21T07:10:39.520Z,100017.13
2019-01-21T07:13:52.583Z,100013.33
2019-01-21T07:17:20.874Z,100015.08
2019-01-21T07:20:22.322Z,100023.56
2019-01-21T07:23:53.819Z,100014.32
2019-01-21T07:27:03.861Z,100013.13
2019-01-21T07:30:01.476Z,100007.63
2019-01-21T07:33:31.506Z,100014.75
2019-01-21T07:37:16.161Z,100013.80
2019-01-21T07:40:14.437Z,100020.18
2019-01-21T07:43:42.036Z,100020.19
2019-01-21T07:47:13.099Z,100022.53
2019-01-21T07:50:39.852Z,100021.23
2019-01-21T07:54:16.284Z,100020.22
2019-01-21T07:57:57.084Z,100024.14
2019-01-21T08:01:26.361Z,100019.41
2019-01-21T08:04:40.312Z,100024.95
2019-01-21T08:07:55.092Z,100025.79
2019-01-21T08:11:19.913Z,100022.91
2019-01-21T08:14:32.694Z,100025.93
2019-01-21T08:17:53.902Z,100020.62
2019-01-21T08:20:49.320Z,100016.63
2019-01-21T08:24:05.763Z,100020.61
2019-01-21T08:27:36.812Z,100023.55
2019-01-21T08:30:45.926Z,100031.64
2019-01-21T08:34:04.998Z,100025.81
2019-01-21T08:37:16.136Z,100027.65
2019-01-21T08:40:26.257Z,100027.01
2019-01-21T08:43:52.136Z,100027.45
2019-01-21T08:47:18.384Z,100024.58
2019-01-21T08:50:15.025Z,100026.45
2019-01-21T08:53:52.700Z,100025.27
2019-01-21T08:57:32.758Z,100031.97
2019-01-21T09:00:42.227Z,100028.90
2019-01-21T09:03:49.863Z,100030.84
2019-01-21T09:06:44.729Z,100027.66
2019-01-21T09:10:25.314Z,100031.75
2019-01-21T09:13:40.705Z,100029.25
2019-01-21T09:17:15.839Z,100028.15
2019-01-21T09:20:58.891Z,100027.02
2019-01-21T09:24:27.160Z,100025.92
2019-01-21T09:27:35.567Z,100032.30
2019-01-21T09:31:19.032Z,100031.73
2019-01-21T09:34:38.056Z,100038.07
2019-01-21T09:37:54.485Z,100042.66
2019-01-21T09:40:49.881Z,100039.88
2019-01-21T09:44:25.797Z,100043.72
2019-01-21T09:46:52.035Z,100050.48
2019-01-21T09:49:18.334Z,100046.23
2019-01-21T09:52:17.506Z,100042.70
2019-01-21T09:54:51.371Z,100036.91
2019-01-21T09:57:25.355Z,100035.72
2019-01-21T09:59:58.724Z,100040.75
2019-01-21T10:02:44.544Z,100040.80
2019-01-21T10:05:16.066Z,100029.95
2019-01-21T10:08:53.240Z,100028.16
2019-01-21T10:12:12.848Z,100029.88
2019-01-21T10:15:55.968Z,100027.54
2019-01-21T10:19:35.081Z,100025.38
2019-01-21T10:23:10.545Z,100026.26
2019-01-21T10:26:30.818Z,100021.56
2019-01-21T10:29:19.305Z,100022.94
2019-01-21T10:32:49.001Z,100021.36
2019-01-21T10:36:38.635Z,100010.79
2019-01-21T10:40:00.961Z,100008.75
2019-01-21T10:43:20.593Z,100004.66
2019-01-21T10:47:16.770Z,99998.75
2019-01-21T10:50:38.802Z,99996.05
2019-01-21T10:53:57.448Z,99994.31
2019-01-21T10:57:19.101Z,99993.36
2019-01-21T11:00:54.989Z,99991.08
2019-01-21T11:04:24.675Z,99990.50
2019-01-21T11:07:50.335Z,99982.97
2019-01-21T11:11:15.227Z,99985.27
2019-01-21T11:14:47.710Z,99984.64
2019-01-21T11:18:30.577Z,99982.98
2019-01-21T11:21:42.819Z,99971.09
2019-01-21T11:25:20.492Z,99974.69
2019-01-21T11:28:45.885Z,99965.41
2019-01-21T11:32:26.864Z,99959.72
2019-01-21T11:36:00.517Z,99949.21
2019-01-21T11:38:54.615Z,99940.78
2019-01-21T11:41:46.636Z,99928.16
2019-01-21T11:45:02.384Z,99923.30
2019-01-21T11:48:28.043Z,99913.05
2019-01-21T11:51:40.765Z,99903.10
2019-01-21T11:55:11.794Z,99895.97
2019-01-21T11:59:01.024Z,99886.95
2019-01-21T12:02:38.087Z,99890.41
2019-01-21T12:05:38.081Z,99881.67
2019-01-21T12:08:36.067Z,99891.82
2019-01-21T12:12:04.306Z,99884.55
2019-01-21T12:15:33.779Z,99880.85
2019-01-21T12:18:48.723Z,99882.02
2019-01-21T12:22:01.076Z,99883.08
2019-01-21T12:24:42.828Z,99876.31
2019-01-21T12:27:48.837Z,99869.88
2019-01-21T12:30:55.952Z,99870.09
2019-01-21T12:34:28.120Z,99867.59
2019-01-21T12:37:45.930Z,99858.77
2019-01-21T12:41:02.458Z,99859.32
2019-01-21T12:44:06.270Z,99865.17
2019-01-21T12:46:47.101Z,99860.58
2019-01-21T12:50:24.042Z,99854.84
2019-01-21T12:53:40.881Z,99849.54
2019-01-21T12:57:03.546Z,99846.97
2019-01-21T13:00:07.074Z,99843.16
2019-01-21T13:03:21.564Z,99841.52
2019-01-21T13:06:26.545Z,99830.44
2019-01-21T13:10:13.591Z,99828.72
2019-01-21T13:13:53.182Z,99822.81
2019-01-21T13:16:47.372Z,99817.36
2019-01-21T13:20:18.670Z,99818.91
2019-01-21T13:23:14.468Z,99813.63
2019-01-21T13:26:31.469Z,99812.76
2019-01-21T13:29:39.203Z,99805.19
2019-01-21T13:33:00.553Z,99804.62
2019-01-21T13:36:08.443Z,99808.43
2019-01-21T13:39:26.919Z,99796.58
2019-01-21T13:42:54.375Z,99793.28
2019-01-21T13:46:14.822Z,99785.17
2019-01-21T13:49:52.494Z,99785.69
2019-01-21T13:53:26.760Z,99777.23
2019-01-21T13:56:29.535Z,99779.17
2019-01-21T13:59:59.924Z,99775.88
2019-01-21T14:03:15.596Z,99769.85
2019-01-21T14:06:28.142Z,99765.09
2019-01-21T14:10:06.077Z,99771.11
2019-01-21T14:13:34.662Z,99761.13
2019-01-21T14:16:48.153Z,99755.46
2019-01-21T14:20:35.040Z,99746.55
2019-01-21T14:23:50.567Z,99745.61
2019-01-21T14:27:17.020Z,99745.05
2019-01-21T14:30:11.877Z,99739.63
2019-01-21T14:33:18.511Z,99733.65
2019-01-21T14:36:31.251Z,99732.92
2019-01-21T14:39:42.128Z,99730.92
2019-01-21T14:42:42.186Z,99726.52
2019-01-21T14:46:04.456Z,99724.36
2019-01-21T14:49:23.483Z,99730.38
2019-01-21T14:52:45.968Z,99735.18
2019-01-21T14:55:50.901Z,99744.34
2019-01-21T14:59:03.154Z,99753.05
2019-01-21T15:01:56.809Z,99744.29
2019-01-21T15:05:16.606Z,99747.95
2019-01-21T15:08:47.475Z,99745.89
2019-01-21T15:11:45.785Z,99752.11
2019-01-21T15:14:25.131Z,99757.34
2019-01-21T15:18:12.320Z,99759.11
2019-01-21T15:21:04.670Z,99761.70
2019-01-21T15:24:38.091Z,99767.88
2019-01-21T15:27:22.489Z,99767.07
2019-01-21T15:31:02.760Z,99763.63
2019-01-21T15:34:37.407Z,99762.64
2019-01-21T15:37:46.481Z,99769.80
2019-01-21T15:40:50.685Z,99773.54
2019-01-21T15:43:45.992Z,99768.03
2019-01-21T15:47:19.989Z,99767.78
2019-01-21T15:51:05.079Z,99766.67
2019-01-21T15:54:00.309Z,99768.05
2019-01-21T15:57:59.630Z,99773.08
2019-01-21T16:01:11.419Z,99773.16
2019-01-21T16:04:46.371Z,99779.72
2019-01-21T16:07:48.391Z,99783.06
2019-01-21T16:11:13.271Z,99780.83
2019-01-21T16:14:06.868Z,99779.84
2019-01-21T16:17:51.432Z,99776.61
2019-01-21T16:21:17.587Z,99781.17
2019-01-21T16:24:29.308Z,99782.73
2019-01-21T16:27:14.951Z,99783.45
2019-01-21T16:30:04.925Z,99780.37
2019-01-21T16:33:42.868Z,99774.20
2019-01-21T16:36:51.538Z,99768.92
2019-01-21T16:40:07.110Z,99764.06
2019-01-21T16:42:35.936Z,99766.38
2019-01-21T16:45:06.232Z,99758.80
2019-01-21T16:47:53.606Z,99764.05
2019-01-21T16:50:21.378Z,99760.31
2019-01-21T16:52:49.156Z,99765.44
2019-01-21T16:55:17.059Z,99768.51
2019-01-21T16:57:44.979Z,99766.38
2019-01-21T17:00:15.109Z,99774.03
2019-01-21T17:02:42.895Z,99775.77
2019-01-21T17:05:12.832Z,99771.02
2019-01-21T17:07:40.689Z,99770.41
2019-01-21T17:10:09.583Z,99770.61
2019-01-21T17:12:37.483Z,99780.08
2019-01-21T17:15:06.972Z,99781.13
2019-01-21T17:17:34.787Z,99787.94
2019-01-21T17:20:03.445Z,99790.67
2019-01-21T17:22:31.302Z,99792.69
2019-01-21T17:24:59.117Z,99787.23
2019-01-21T17:27:27.040Z,99784.41
2019-01-21T17:29:54.840Z,99784.15
2019-01-21T17:32:23.281Z,99785.18
2019-01-21T17:34:51.132Z,99786.02
2019-01-21T17:37:19.024Z,99782.45
2019-01-21T17:39:46.837Z,99782.80
2019-01-21T17:42:16.305Z,99780.53
2019-01-21T17:44:46.589Z,99778.27
2019-01-21T17:47:19.513Z,99781.36
2019-01-21T17:49:50.271Z,99780.61
2019-01-21T17:52:18.192Z,99785.30
2019-01-21T17:54:46.068Z,99779.21
2019-01-21T17:57:26.500Z,99786.05
2019-01-21T17:59:56.161Z,99776.27
2019-01-21T18:02:23.940Z,99788.94
2019-01-21T18:04:51.838Z,99792.54
2019-01-21T18:07:19.651Z,99787.36
2019-01-21T18:09:47.450Z,99790.00
2019-01-21T18:12:15.306Z,99782.86
2019-01-21T18:14:43.109Z,99780.51
2019-01-21T18:17:10.955Z,99775.50
2019-01-21T18:19:38.809Z,99777.36
2019-01-21T18:22:06.634Z,99774.80
2019-01-21T18:24:34.948Z,99772.52
2019-01-21T18:27:02.855Z,99768.78
2019-01-21T18:29:30.658Z,99767.13
2019-01-21T18:31:58.505Z,99762.02
2019-01-21T18:34:32.253Z,99757.09
2019-01-21T18:37:00.077Z,99749.90
2019-01-21T18:39:27.911Z,99748.66
2019-01-21T18:41:55.716Z,99744.16
2019-01-21T18:44:23.492Z,99747.18
2019-01-21T18:46:51.342Z,99742.64
2019-01-21T18:49:22.842Z,99733.59
2019-01-21T18:51:48.853Z,99719.09
2019-01-21T18:54:16.685Z,99728.38
2019-01-21T18:56:44.498Z,99733.85
2019-01-21T18:59:12.423Z,99737.03
2019-01-21T19:01:40.229Z,99736.20
2019-01-21T19:04:08.042Z,99737.78
2019-01-21T19:06:35.846Z,99736.19
2019-01-21T19:09:07.515Z,99736.43
2019-01-21T19:11:35.377Z,99746.94
2019-01-21T19:14:03.793Z,99753.59
2019-01-21T19:16:31.614Z,99758.63
2019-01-21T19:19:30.708Z,99763.17
2019-01-21T19:21:58.940Z,99767.50
2019-01-21T19:24:26.824Z,99762.14
2019-01-21T19:26:54.600Z,99765.72
2019-01-21T19:29:22.452Z,99765.89
2019-01-21T19:31:50.255Z,99776.02
2019-01-21T19:34:18.119Z,99768.89
2019-01-21T19:36:45.989Z,99765.61
2019-01-21T19:39:13.857Z,99774.11
2019-01-21T19:41:44.026Z,99769.09
2019-01-21T19:44:11.809Z,99764.34
2019-01-21T19:46:44.133Z,99769.02
2019-01-21T19:49:09.537Z,99768.89
2019-01-21T19:51:38.546Z,99772.39
2019-01-21T19:54:06.707Z,99773.33
2019-01-21T19:56:34.504Z,99774.25
2019-01-21T19:59:07.385Z,99779.80
2019-01-21T20:01:36.376Z,99783.81
2019-01-21T20:04:08.225Z,99780.79
2019-01-21T20:06:36.019Z,99780.70
2019-01-21T20:09:23.338Z,99782.26
2019-01-21T20:11:52.135Z,99784.34
2019-01-21T20:14:22.505Z,99781.16
2019-01-21T20:16:50.756Z,99788.23
2019-01-21T20:19:21.426Z,99784.17
2019-01-21T20:21:51.718Z,99783.39
2019-01-21T20:24:19.586Z,99781.65
2019-01-21T20:26:47.345Z,99786.16
2019-01-21T20:29:15.225Z,99785.38
2019-01-21T20:31:43.139Z,99784.30
2019-01-21T20:34:11.045Z,99777.73
2019-01-21T20:36:38.829Z,99776.50
2019-01-21T20:39:08.434Z,99773.08
2019-01-21T20:41:36.389Z,99772.27
2019-01-21T20:44:04.325Z,99768.83
2019-01-21T20:46:32.154Z,99760.20
2019-01-21T20:48:59.999Z,99760.30
2019-01-21T20:51:27.818Z,99757.44
2019-01-21T20:53:55.656Z,99760.42
2019-01-21T20:56:23.455Z,99757.31
2019-01-21T20:58:51.249Z,99754.53
2019-01-21T21:01:33.940Z,99753.89
2019-01-21T21:04:01.769Z,99745.88
2019-01-21T21:06:29.610Z,99748.77
2019-01-21T21:08:57.495Z,99756.14
2019-01-21T21:11:25.290Z,99754.65
2019-01-21T21:13:53.130Z,99753.59
2019-01-21T21:16:20.943Z,99746.91
2019-01-21T21:18:48.809Z,99750.39
2019-01-21T21:21:16.627Z,99751.95
2019-01-21T21:23:44.484Z,99752.33
2019-01-21T21:26:12.374Z,99753.83
2019-01-21T21:28:40.182Z,99747.16
2019-01-21T21:31:08.012Z,99748.44
2019-01-21T21:33:35.921Z,99751.50
2019-01-21T21:36:03.871Z,99744.03
2019-01-21T21:38:33.295Z,99740.73
2019-01-21T21:41:01.633Z,99745.20
2019-01-21T21:43:29.478Z,99740.98
2019-01-21T21:45:57.321Z,99741.74
2019-01-21T21:48:31.804Z,99737.58
2019-01-21T21:50:59.883Z,99734.97
2019-01-21T21:53:27.774Z,99740.09
2019-01-21T21:55:55.639Z,99741.89
2019-01-21T21:58:23.494Z,99738.81
2019-01-21T22:01:11.142Z,99739.93
2019-01-21T22:03:39.874Z,99739.30
2019-01-21T22:06:07.701Z,99742.45
2019-01-21T22:08:35.657Z,99745.88
2019-01-21T22:11:03.517Z,99743.25
2019-01-21T22:13:31.361Z,99745.27
2019-01-21T22:15:59.298Z,99746.62
2019-01-21T22:19:02.999Z,99741.87
2019-01-21T22:21:30.856Z,99743.05
2019-01-21T22:23:58.773Z,99739.09
2019-01-21T22:26:26.948Z,99730.06
2019-01-21T22:28:54.790Z,99728.31
2019-01-21T22:31:22.515Z,99728.94
2019-01-21T22:33:50.358Z,99720.78
2019-01-21T22:36:18.113Z,99724.30
2019-01-21T22:38:51.181Z,99718.42
2019-01-21T22:41:18.983Z,99720.30
2019-01-21T22:43:46.733Z,99718.22
2019-01-21T22:46:14.480Z,99717.89
2019-01-21T22:48:42.279Z,99716.07
2019-01-21T22:51:10.074Z,99715.75
2019-01-21T22:53:38.404Z,99717.67
2019-01-21T22:56:06.193Z,99715.17
2019-01-21T22:58:34.066Z,99708.81
2019-01-21T23:01:16.071Z,99707.64
2019-01-21T23:03:43.939Z,99701.38
2019-01-21T23:06:11.699Z,99703.84
2019-01-21T23:08:39.656Z,99707.05
2019-01-21T23:11:07.492Z,99703.95
2019-01-21T23:13:35.308Z,99696.41
2019-01-21T23:16:03.520Z,99695.73
2019-01-21T23:18:32.013Z,99693.48
2019-01-21T23:20:59.808Z,99691.78
2019-01-21T23:23:27.600Z,99684.09
2019-01-21T23:25:55.406Z,99690.23
2019-01-21T23:28:23.283Z,99686.54
2019-01-21T23:30:51.090Z,99689.68
2019-01-21T23:33:19.495Z,99688.34
2019-01-21T23:35:48.935Z,99689.20
2019-01-21T23:38:31.892Z,99691.45
2019-01-21T23:40:59.694Z,99686.42
2019-01-21T23:43:27.492Z,99685.30
2019-01-21T23:45:55.279Z,99683.91
2019-01-21T23:48:23.511Z,99678.89
2019-01-21T23:50:51.285Z,99678.58
2019-01-21T23:53:19.094Z,99682.95
2019-01-21T23:55:46.861Z,99681.08
2019-01-21T23:58:29.719Z,99677.01
